Time;durP1;ratioP1;P1;durP2;ratioP2;P2;SDS_P1;SDS_P2;PMS_P1;PMS_P2;Temp;Humidity;BMP_temperature;BMP_pressure;BME280_temperature;BME280_humidity;BME280_pressure;Samples;Min_cycle;Max_cycle;Signal;HPM_P1;HPM_P2
2022/02/01 00:00:43;;;;;;;8.27;0.70;;;;;;;1.27;44.29;101562.97;5023961;28;20036;-71
2022/02/01 00:03:06;;;;;;;8.63;1.13;;;;;;;1.55;43.86;101570.97;5014761;28;20854;-70
2022/02/01 00:06:02;;;;;;;19.42;0.60;;;;;;;1.43;44.32;101564.88;5002171;28;20497;-72
2022/02/01 00:08:35;;;;;;;11.65;0.70;;;;;;;1.32;44.88;101566.44;5005241;28;20037;-72
2022/02/01 00:18:47;;;;;;;3.55;0.88;;;;;;;1.84;43.50;101543.75;5006812;28;20069;-72
2022/02/01 00:35:22;;;;;;;12.32;0.65;;;;;;;2.28;43.27;101568.06;5003108;28;20030;-71
2022/02/01 00:37:59;;;;;;;10.90;1.05;;;;;;;1.96;44.30;101576.47;5000618;28;20811;-71
2022/02/01 00:40:25;;;;;;;12.20;0.55;;;;;;;2.21;44.37;101582.66;5004808;28;20099;-74
2022/02/01 00:42:51;;;;;;;9.48;1.08;;;;;;;1.69;46.93;101601.19;5002968;28;20042;-74
2022/02/01 00:45:16;;;;;;;13.65;1.05;;;;;;;1.43;49.82;101590.63;5001767;28;20600;-74
2022/02/01 00:47:43;;;;;;;2.97;0.55;;;;;;;1.17;51.47;101582.63;5010171;28;20029;-74
2022/02/01 00:50:12;;;;;;;10.98;1.65;;;;;;;1.19;51.79;101580.91;5001258;28;20037;-74
2022/02/01 00:52:38;;;;;;;7.85;0.52;;;;;;;1.20;51.54;101580.09;4996622;28;20032;-73
2022/02/01 00:55:05;;;;;;;16.30;0.75;;;;;;;1.22;51.04;101587.84;5024121;28;20025;-74
2022/02/01 00:57:30;;;;;;;10.32;0.77;;;;;;;1.37;50.58;101580.22;5021356;28;20041;-73
2022/02/01 00:59:56;;;;;;;13.38;1.08;;;;;;;1.37;50.51;101587.97;5021077;28;20048;-75
2022/02/01 01:02:21;;;;;;;7.63;0.52;;;;;;;1.34;50.60;101593.09;5033379;28;20064;-74
2022/02/01 01:04:47;;;;;;;12.55;1.52;;;;;;;1.24;50.93;101579.28;5001672;28;20041;-74
2022/02/01 01:07:13;;;;;;;12.85;0.50;;;;;;;1.37;50.42;101580.22;5006904;28;20072;-75
2022/02/01 01:09:38;;;;;;;5.05;0.88;;;;;;;1.20;50.88;101582.66;5000098;28;20038;-75
2022/02/01 01:12:04;;;;;;;18.33;1.08;;;;;;;1.36;50.67;101587.97;5003819;28;20091;-72
2022/02/01 01:44:23;;;;;;;20.48;1.52;;;;;;;1.93;51.14;101537.78;5022610;28;20369;-71
2022/02/01 01:55:01;;;;;;;2.47;0.40;;;;;;;1.78;50.60;101519.66;5003547;28;20524;-73
2022/02/01 01:57:26;;;;;;;8.23;0.65;;;;;;;1.47;51.78;101525.41;5002536;28;20042;-73
2022/02/01 01:59:53;;;;;;;8.98;1.60;;;;;;;1.84;51.28;101509.34;5011947;28;20077;-73
2022/02/01 02:02:18;;;;;;;12.65;1.40;;;;;;;1.49;51.98;101508.25;5009928;28;20029;-74
2022/02/01 02:04:44;;;;;;;9.55;0.85;;;;;;;1.56;52.40;101495.44;5022631;28;20025;-73
2022/02/01 02:07:10;;;;;;;9.10;0.60;;;;;;;1.69;51.97;101495.53;5023691;28;20155;-74
2022/02/01 02:09:36;;;;;;;10.23;0.65;;;;;;;1.95;51.60;101507.69;5005897;28;20029;-73
2022/02/01 02:12:14;;;;;;;6.88;0.77;;;;;;;1.91;51.50;101517.16;5012465;28;20030;-73
2022/02/01 02:14:46;;;;;;;13.52;1.20;;;;;;;1.86;51.79;101513.69;5004725;28;20067;-73
2022/02/01 02:17:12;;;;;;;4.45;1.17;;;;;;;1.89;51.65;101513.69;5004487;28;20041;-72
2022/02/01 02:19:38;;;;;;;10.38;1.10;;;;;;;2.02;51.42;101513.75;5009611;28;20633;-73
2022/02/01 02:22:06;;;;;;;17.35;0.50;;;;;;;1.85;51.76;101511.94;5004989;28;20040;-74
2022/02/01 02:24:38;;;;;;;8.13;0.90;;;;;;;1.77;51.92;101515.31;5006208;28;20029;-75
2022/02/01 02:27:04;;;;;;;10.00;0.70;;;;;;;1.86;51.35;101508.53;5007051;28;20033;-75
2022/02/01 02:29:30;;;;;;;9.38;0.38;;;;;;;1.70;51.86;101509.25;5020781;28;20533;-73
2022/02/01 02:31:57;;;;;;;7.38;0.55;;;;;;;1.77;51.66;101523.91;4986568;28;20037;-74
2022/02/01 02:34:24;;;;;;;5.65;0.38;;;;;;;1.62;52.16;101513.53;5013792;28;20421;-72
2022/02/01 02:36:58;;;;;;;10.93;0.73;;;;;;;1.71;52.30;101508.44;5008208;28;20049;-73
2022/02/01 02:39:30;;;;;;;6.22;0.73;;;;;;;1.64;52.13;101509.22;5022084;28;20421;-73
2022/02/01 02:47:27;;;;;;;5.90;0.20;;;;;;;1.86;51.78;101489.59;5025176;28;20049;-72
2022/02/01 02:49:59;;;;;;;10.52;0.80;;;;;;;1.99;51.06;101475.94;5023923;28;20673;-73
2022/02/01 02:52:26;;;;;;;10.82;0.70;;;;;;;1.80;51.56;101471.53;5025163;28;20049;-74
2022/02/01 02:54:53;;;;;;;9.90;1.15;;;;;;;2.04;50.70;101452.75;5023796;28;20034;-73
2022/02/01 02:57:19;;;;;;;5.00;0.10;;;;;;;2.14;50.38;101463.13;5022064;28;20397;-73
2022/02/01 02:59:44;;;;;;;6.03;0.43;;;;;;;1.98;50.95;101452.75;5023417;28;20040;-72
2022/02/01 03:02:10;;;;;;;11.52;0.57;;;;;;;2.00;50.72;101453.56;5026650;28;20119;-72
2022/02/01 03:04:36;;;;;;;7.50;0.47;;;;;;;1.87;51.11;101460.41;5030730;28;20198;-72
2022/02/01 03:07:04;;;;;;;8.57;0.50;;;;;;;2.05;50.65;101446.75;5015332;28;20041;-72
2022/02/01 03:09:32;;;;;;;10.45;0.35;;;;;;;1.80;50.93;101454.34;5023798;28;20025;-71
2022/02/01 03:11:59;;;;;;;3.35;0.32;;;;;;;1.86;51.12;101454.41;5036808;28;20051;-72
2022/02/01 03:14:44;;;;;;;5.07;0.40;;;;;;;1.90;50.53;101458.69;5026939;28;20517;-72
2022/02/01 03:19:53;;;;;;;3.50;0.28;;;;;;;1.96;50.58;101451.88;5022367;28;20045;-72
2022/02/01 03:22:27;;;;;;;4.45;0.20;;;;;;;1.47;51.77;101453.28;5023631;28;20040;-72
2022/02/01 03:24:55;;;;;;;4.07;0.30;;;;;;;2.07;50.46;101458.78;5021001;28;20029;-72
2022/02/01 03:27:21;;;;;;;9.85;0.50;;;;;;;1.93;50.92;101455.28;5022721;28;20037;-72
2022/02/01 03:29:47;;;;;;;6.97;0.30;;;;;;;1.70;51.68;101434.53;5022930;28;20289;-72
2022/02/01 03:32:13;;;;;;;7.38;0.32;;;;;;;1.78;51.29;101414.81;5026116;28;20041;-72
2022/02/01 03:34:39;;;;;;;11.48;1.15;;;;;;;1.75;51.49;101399.31;5037949;28;20047;-71
2022/02/01 03:37:06;;;;;;;4.88;0.30;;;;;;;1.57;52.08;101379.47;5041139;28;20032;-72
2022/02/01 03:39:31;;;;;;;5.38;0.43;;;;;;;1.78;51.51;101391.63;5022094;28;20044;-72
2022/02/01 03:41:57;;;;;;;9.35;0.68;;;;;;;1.27;53.25;101380.13;5023068;28;20033;-72
2022/02/01 03:44:23;;;;;;;10.35;0.98;;;;;;;1.39;53.07;101366.47;5024910;28;20029;-72
2022/02/01 03:49:43;;;;;;;8.38;1.38;;;;;;;1.68;51.92;101353.75;5014243;28;20041;-73
2022/02/01 03:52:10;;;;;;;6.97;0.73;;;;;;;1.81;51.88;101371.00;5024205;28;20025;-72
2022/02/01 03:54:36;;;;;;;12.63;0.68;;;;;;;1.85;51.54;101366.75;5003521;28;20048;-73
2022/02/01 03:57:04;;;;;;;9.07;0.50;;;;;;;1.58;52.15;101368.31;5014765;28;20061;-74
2022/02/01 03:59:30;;;;;;;14.65;0.20;;;;;;;1.54;52.68;101381.19;5020907;28;20037;-74
2022/02/01 04:01:58;;;;;;;8.40;0.60;;;;;;;1.87;51.56;101371.03;5022409;28;20029;-73
2022/02/01 04:04:24;;;;;;;9.93;1.88;;;;;;;1.69;52.17;101387.28;5023226;28;20499;-73
2022/02/01 04:06:51;;;;;;;17.27;0.68;;;;;;;1.62;52.28;101385.53;5022500;28;20124;-73
2022/02/01 04:09:16;;;;;;;4.53;1.00;;;;;;;1.60;52.52;101384.66;5024925;28;20362;-74
2022/02/01 04:11:42;;;;;;;3.28;0.20;;;;;;;1.55;52.59;101388.06;5008010;28;20478;-73
2022/02/01 04:14:07;;;;;;;12.60;0.40;;;;;;;1.54;52.95;101386.34;5029629;28;20453;-73
2022/02/01 04:16:33;;;;;;;11.65;1.65;;;;;;;1.72;52.34;101386.44;5021136;28;20041;-73
2022/02/01 04:19:02;;;;;;;6.72;0.50;;;;;;;1.83;52.20;101374.47;5023278;28;20132;-73
2022/02/01 04:21:27;;;;;;;9.82;0.30;;;;;;;1.94;52.09;101367.63;5028318;28;20037;-73
2022/02/01 04:23:53;;;;;;;6.93;0.43;;;;;;;1.58;52.70;101362.31;4991235;28;20072;-73
2022/02/01 04:26:18;;;;;;;9.20;0.70;;;;;;;1.84;52.02;101355.56;5002770;28;20121;-72
2022/02/01 04:28:44;;;;;;;7.30;0.40;;;;;;;1.83;52.25;101353.84;5002252;28;20124;-72
2022/02/01 04:31:09;;;;;;;9.50;0.95;;;;;;;1.67;52.90;101350.34;5018667;28;20037;-73
2022/02/01 04:33:35;;;;;;;6.88;0.43;;;;;;;2.05;51.62;101351.34;5001005;28;20045;-73
2022/02/01 04:36:01;;;;;;;6.60;0.52;;;;;;;1.90;51.92;101353.00;5001730;28;20281;-73
2022/02/01 04:38:26;;;;;;;9.73;0.82;;;;;;;1.55;53.55;101354.56;5002147;28;20364;-72
2022/02/01 04:40:54;;;;;;;3.63;0.45;;;;;;;2.04;52.16;101365.97;5003584;28;20034;-72
2022/02/01 04:43:20;;;;;;;5.13;0.20;;;;;;;1.53;53.65;101370.03;5000878;28;20621;-72
2022/02/01 04:45:46;;;;;;;19.40;1.95;;;;;;;2.12;52.03;101365.97;5003939;28;20030;-74
2022/02/01 04:48:11;;;;;;;9.13;0.57;;;;;;;1.48;54.23;101362.28;5003947;28;20048;-74
2022/02/01 04:50:38;;;;;;;8.70;0.77;;;;;;;1.48;54.56;101362.28;5017704;28;20029;-74
2022/02/01 04:53:22;;;;;;;8.52;0.40;;;;;;;1.51;54.15;101351.13;5011480;28;20069;-74
2022/02/01 04:55:54;;;;;;;10.32;0.50;;;;;;;1.48;54.82;101357.13;5020658;28;20094;-74
2022/02/01 04:58:24;;;;;;;14.13;0.50;;;;;;;1.08;56.36;101361.97;5010558;28;20510;-73
2022/02/01 05:00:50;;;;;;;3.95;0.40;;;;;;;1.24;55.77;101341.50;5001483;28;20037;-73
2022/02/01 05:03:16;;;;;;;12.52;0.98;;;;;;;1.27;56.25;101336.34;5003024;28;20487;-72
2022/02/01 05:05:42;;;;;;;10.35;0.80;;;;;;;1.40;55.91;101342.44;4993801;28;20025;-74
2022/02/01 05:08:09;;;;;;;3.92;0.50;;;;;;;1.25;56.23;101336.34;5003617;28;20034;-74
2022/02/01 05:10:37;;;;;;;15.13;1.13;;;;;;;1.61;55.16;101328.81;5004142;28;20030;-74
2022/02/01 05:15:46;;;;;;;5.70;0.50;;;;;;;1.91;54.68;101339.28;5001507;28;20051;-74
2022/02/01 05:18:24;;;;;;;4.97;0.40;;;;;;;2.01;54.37;101332.41;5013419;28;20046;-74
2022/02/01 05:20:57;;;;;;;7.28;0.57;;;;;;;1.97;54.93;101328.09;5023365;28;20138;-74
2022/02/01 05:23:24;;;;;;;22.65;1.70;;;;;;;1.87;55.33;101323.78;5019989;28;20044;-74
2022/02/01 05:25:50;;;;;;;8.63;0.57;;;;;;;1.86;55.45;101292.00;5021960;28;20904;-74
2022/02/01 05:28:17;;;;;;;4.78;0.30;;;;;;;1.69;55.95;101294.50;5025208;28;20044;-73
2022/02/01 05:30:43;;;;;;;5.93;1.00;;;;;;;1.49;55.92;101286.69;4988414;28;20037;-74
2022/02/01 05:33:08;;;;;;;12.23;1.35;;;;;;;1.85;55.35;101295.41;5003655;28;20041;-74
2022/02/01 05:35:33;;;;;;;5.68;0.30;;;;;;;1.70;55.80;101291.06;5026255;28;20033;-74
2022/02/01 05:37:59;;;;;;;10.18;0.40;;;;;;;1.46;56.29;101291.84;5021287;28;20041;-74
2022/02/01 05:40:26;;;;;;;4.75;0.30;;;;;;;1.41;56.51;101292.66;5007738;28;20071;-74
2022/02/01 05:43:05;;;;;;;7.75;0.93;;;;;;;1.84;55.25;101278.25;5013315;28;20034;-74
2022/02/01 05:45:35;;;;;;;3.55;0.52;;;;;;;2.24;53.85;101272.28;5013290;28;20104;-73
2022/02/01 05:48:02;;;;;;;2.08;0.40;;;;;;;1.62;54.96;101266.16;5009260;28;20038;-74
2022/02/01 05:50:28;;;;;;;7.75;0.57;;;;;;;0.94;56.13;101270.91;5005059;28;20033;-73
2022/02/01 05:52:54;;;;;;;4.18;0.88;;;;;;;1.79;54.42;101292.81;5007981;28;20125;-73
2022/02/01 05:55:19;;;;;;;2.63;0.30;;;;;;;1.47;54.99;101298.72;5004875;28;20487;-72
2022/02/01 05:57:45;;;;;;;6.13;0.30;;;;;;;1.56;54.59;101297.88;5006800;28;20156;-72
2022/02/01 06:00:11;;;;;;;7.32;0.68;;;;;;;1.49;54.95;101311.59;5005909;28;20034;-72
2022/02/01 06:02:40;;;;;;;0.30;0.10;;;;;;;1.15;55.43;101300.22;5006117;28;20041;-70
2022/02/01 06:05:06;;;;;;;5.78;0.20;;;;;;;1.45;54.84;101289.25;5006142;28;20014;-71
2022/02/01 06:07:31;;;;;;;5.05;0.20;;;;;;;1.48;54.40;101286.69;5010660;28;20078;-72
2022/02/01 06:09:57;;;;;;;10.35;0.50;;;;;;;1.77;53.95;101286.78;5026306;28;20037;-72
2022/02/01 06:12:22;;;;;;;13.40;0.73;;;;;;;1.50;54.39;101285.81;5028457;28;20041;-73
2022/02/01 06:14:47;;;;;;;3.05;0.47;;;;;;;1.41;54.67;101283.22;5003261;28;20041;-73
2022/02/01 06:17:13;;;;;;;4.90;0.60;;;;;;;1.51;54.39;101282.41;5006407;28;20046;-75
2022/02/01 06:19:38;;;;;;;6.60;0.40;;;;;;;1.10;55.50;101266.72;5005501;28;20064;-74
2022/02/01 06:22:05;;;;;;;2.40;0.10;;;;;;;1.49;54.90;101262.66;5007448;28;20045;-74
2022/02/01 06:24:32;;;;;;;3.28;0.20;;;;;;;1.50;54.45;101256.63;5006290;28;20029;-74
2022/02/01 06:26:57;;;;;;;3.67;0.70;;;;;;;0.99;56.78;101252.91;5001032;28;20349;-75
2022/02/01 06:29:23;;;;;;;5.38;0.35;;;;;;;1.48;55.16;101243.78;5030264;28;20151;-74
2022/02/01 06:31:48;;;;;;;7.60;0.65;;;;;;;1.20;56.29;101247.91;5038663;28;20047;-73
2022/02/01 06:34:14;;;;;;;4.07;0.30;;;;;;;1.31;56.24;101228.22;5004287;28;20044;-73
2022/02/01 06:36:39;;;;;;;5.88;0.50;;;;;;;0.90;56.80;101223.72;5002839;28;20128;-74
2022/02/01 06:39:07;;;;;;;5.97;0.50;;;;;;;1.17;56.45;101221.25;5020926;28;20046;-73
2022/02/01 06:41:34;;;;;;;6.60;0.35;;;;;;;0.98;57.29;101226.31;5019461;28;20063;-72
2022/02/01 06:44:10;;;;;;;8.00;0.50;;;;;;;1.24;56.84;101233.34;5009937;28;20050;-73
2022/02/01 06:46:36;;;;;;;8.35;0.45;;;;;;;1.25;56.80;101245.34;5020762;28;20037;-72
2022/02/01 06:49:02;;;;;;;10.27;0.77;;;;;;;1.11;57.27;101227.25;5022125;28;20047;-74
2022/02/01 06:51:28;;;;;;;5.72;0.77;;;;;;;0.79;58.23;101209.94;5010880;28;20525;-74
2022/02/01 06:53:57;;;;;;;8.40;0.57;;;;;;;0.69;59.11;101203.00;5027045;28;20413;-73
2022/02/01 06:56:29;;;;;;;8.43;1.10;;;;;;;1.22;57.38;101188.69;5009445;28;20029;-73
2022/02/01 06:58:58;;;;;;;7.88;0.57;;;;;;;1.21;57.24;101161.22;5014655;28;20056;-71
2022/02/01 07:01:27;;;;;;;8.18;0.90;;;;;;;0.59;59.41;101158.34;5022386;28;20039;-71
2022/02/01 07:03:53;;;;;;;4.70;0.75;;;;;;;0.64;58.96;101164.38;5021447;28;20055;-71
2022/02/01 07:06:19;;;;;;;12.27;0.40;;;;;;;1.05;58.29;101186.88;5023357;28;20033;-71
2022/02/01 07:08:47;;;;;;;11.85;0.65;;;;;;;1.26;57.99;101159.50;5020844;28;20049;-72
2022/02/01 07:11:13;;;;;;;13.52;0.60;;;;;;;1.11;58.69;101145.72;5010845;28;20034;-72
2022/02/01 07:13:39;;;;;;;11.90;0.93;;;;;;;1.32;58.25;101142.34;5004730;28;20593;-73
2022/02/01 07:16:07;;;;;;;8.85;0.68;;;;;;;1.11;58.48;101145.72;5005307;28;20063;-71
2022/02/01 07:18:33;;;;;;;8.43;0.60;;;;;;;0.93;58.92;101140.53;5019575;28;20053;-71
2022/02/01 07:20:59;;;;;;;8.65;1.27;;;;;;;1.13;58.97;101125.16;5039261;28;20045;-72
2022/02/01 07:23:41;;;;;;;11.80;0.90;;;;;;;1.22;58.63;101112.31;5021816;28;20076;-72
2022/02/01 07:26:08;;;;;;;4.30;0.65;;;;;;;1.15;58.90;101095.13;5025840;28;20037;-75
2022/02/01 07:28:34;;;;;;;10.93;1.17;;;;;;;0.86;59.84;101102.75;5005051;28;20064;-74
2022/02/01 07:31:00;;;;;;;10.27;0.98;;;;;;;1.36;58.24;101104.59;5029834;28;20068;-73
2022/02/01 07:33:27;;;;;;;7.13;0.82;;;;;;;1.54;57.84;101096.06;5009414;28;20152;-74
2022/02/01 07:35:53;;;;;;;8.40;1.23;;;;;;;1.47;58.04;101087.47;5009759;28;20042;-74
2022/02/01 07:38:22;;;;;;;17.88;2.03;;;;;;;1.45;58.66;101073.72;5000983;28;20138;-75
2022/02/01 07:40:54;;;;;;;10.68;1.73;;;;;;;1.02;59.30;101070.19;5009976;28;20683;-75
2022/02/01 07:43:21;;;;;;;;;;;;;;;1.65;58.35;101071.16;5013656;28;20321;-74
2022/02/01 07:45:47;;;;;;;14.15;1.30;;;;;;;1.46;59.15;101057.44;5003893;28;19917;-74
2022/02/01 07:48:15;;;;;;;9.45;1.30;;;;;;;1.43;59.19;101065.16;4983943;28;20383;-74
2022/02/01 07:50:42;;;;;;;9.00;1.52;;;;;;;1.74;58.26;101034.25;5022361;28;20180;-73
2022/02/01 07:53:09;;;;;;;12.95;1.45;;;;;;;1.35;59.80;101015.31;5005241;28;20037;-73
2022/02/01 07:55:35;;;;;;;4.85;1.55;;;;;;;1.77;58.95;101003.28;5005290;28;20034;-73
2022/02/01 07:58:02;;;;;;;10.68;1.77;;;;;;;1.50;59.78;101002.47;5004808;28;20041;-71
2022/02/01 08:00:30;;;;;;;6.13;1.67;;;;;;;1.69;59.35;100999.91;4984286;28;20558;-72
2022/02/01 08:02:56;;;;;;;19.85;1.95;;;;;;;1.44;60.79;101014.47;5018640;28;20045;-72
2022/02/01 08:05:25;;;;;;;13.13;1.63;;;;;;;0.82;62.75;100995.50;5003209;28;20034;-72
2022/02/01 08:07:52;;;;;;;12.45;1.70;;;;;;;1.20;61.56;100997.28;5013183;28;20037;-72
2022/02/01 08:10:18;;;;;;;13.43;2.45;;;;;;;1.46;61.33;100987.00;5025486;28;20060;-74
2022/02/01 08:20:57;;;;;;;10.07;1.38;;;;;;;1.03;62.31;100956.91;5002561;28;20123;-72
2022/02/01 08:23:23;;;;;;;10.75;1.88;;;;;;;1.09;62.12;100954.34;5005230;28;20248;-74
2022/02/01 08:25:52;;;;;;;8.85;1.42;;;;;;;1.09;62.56;100938.91;5001453;28;20048;-73
2022/02/01 08:28:19;;;;;;;13.75;1.25;;;;;;;1.01;62.76;100937.19;5012598;28;20044;-73
2022/02/01 08:30:45;;;;;;;5.28;1.38;;;;;;;1.37;61.82;100938.91;5034592;28;20112;-75
2022/02/01 08:33:10;;;;;;;10.30;1.60;;;;;;;1.02;62.61;100918.34;5033048;28;20140;-73
2022/02/01 08:35:36;;;;;;;5.38;1.48;;;;;;;0.69;63.98;100905.41;5024996;28;20041;-72
2022/02/01 08:38:02;;;;;;;15.20;1.35;;;;;;;1.21;63.05;100898.56;5029816;28;20041;-71
2022/02/01 08:40:28;;;;;;;10.07;1.98;;;;;;;0.90;63.78;100885.69;5003580;28;20041;-70
2022/02/01 08:42:53;;;;;;;17.98;1.77;;;;;;;1.31;62.82;100879.69;5004071;28;20112;-71
2022/02/01 08:45:24;;;;;;;5.28;1.50;;;;;;;1.29;62.60;100847.94;5017553;28;20533;-71
2022/02/01 08:47:52;;;;;;;6.72;1.80;;;;;;;1.04;64.05;100857.41;5005968;28;20042;-72
2022/02/01 08:50:24;;;;;;;12.80;2.33;;;;;;;0.79;64.71;100844.56;4997374;28;20038;-72
2022/02/01 08:52:51;;;;;;;13.18;2.55;;;;;;;1.91;61.26;100843.47;5005042;28;20048;-72
2022/02/01 08:55:34;;;;;;;12.00;2.65;;;;;;;0.81;64.89;100847.09;5023854;28;20039;-71
2022/02/01 08:58:04;;;;;;;6.90;1.65;;;;;;;1.78;61.96;100832.38;5018197;28;20076;-72
2022/02/01 09:00:30;;;;;;;6.32;1.75;;;;;;;1.41;62.89;100824.75;5008423;28;20045;-71
2022/02/01 09:02:58;;;;;;;10.18;2.28;;;;;;;1.15;64.03;100822.22;5007391;28;20065;-72
2022/02/01 09:05:25;;;;;;;3.72;1.58;;;;;;;1.18;63.93;100816.19;5004341;28;20021;-72
2022/02/01 09:07:51;;;;;;;6.75;2.03;;;;;;;1.37;63.67;100812.69;5002566;28;20088;-73
2022/02/01 09:10:16;;;;;;;7.70;2.40;;;;;;;0.62;65.45;100805.94;5002239;28;20358;-72
2022/02/01 09:12:42;;;;;;;2.75;1.35;;;;;;;1.40;63.97;100791.25;5009760;28;20800;-72
2022/02/01 09:15:08;;;;;;;10.38;2.70;;;;;;;1.35;63.91;100798.13;5006119;28;20576;-72
2022/02/01 09:17:33;;;;;;;7.93;1.27;;;;;;;1.42;63.83;100800.72;5004213;28;20505;-71
2022/02/01 09:20:00;;;;;;;6.07;1.90;;;;;;;1.33;64.48;100774.97;4987900;28;20041;-72
2022/02/01 09:22:26;;;;;;;7.18;1.83;;;;;;;1.15;65.01;100760.44;4998013;28;20042;-72
2022/02/01 09:24:52;;;;;;;3.88;1.90;;;;;;;1.30;64.53;100762.09;5001525;28;20032;-73
2022/02/01 09:27:18;;;;;;;6.07;1.65;;;;;;;1.31;64.73;100756.94;5002289;28;20393;-73
2022/02/01 09:29:44;;;;;;;4.45;1.23;;;;;;;1.46;64.12;100744.88;5004419;28;20448;-71
2022/02/01 09:32:09;;;;;;;3.63;1.77;;;;;;;1.72;63.68;100757.66;4997993;28;20030;-74
2022/02/01 09:34:35;;;;;;;7.30;3.10;;;;;;;1.97;62.76;100747.22;5000273;28;20064;-72
2022/02/01 09:37:03;;;;;;;10.38;2.20;;;;;;;1.61;64.50;100738.81;5009160;28;20141;-71
2022/02/01 09:39:30;;;;;;;5.25;2.17;;;;;;;1.84;63.51;100731.84;5004671;28;21163;-71
2022/02/01 09:41:56;;;;;;;4.78;2.25;;;;;;;1.95;63.24;100724.00;5000055;28;20037;-72
2022/02/01 09:44:22;;;;;;;4.50;2.13;;;;;;;1.57;64.90;100722.50;5017826;28;20033;-73
2022/02/01 09:46:50;;;;;;;3.35;2.13;;;;;;;1.69;64.61;100721.59;5017179;28;20454;-73
2022/02/01 09:49:19;;;;;;;3.90;2.17;;;;;;;1.46;65.47;100712.28;5001592;28;20069;-72
2022/02/01 09:51:48;;;;;;;5.03;2.65;;;;;;;1.92;64.07;100714.56;5007254;28;20043;-71
2022/02/01 09:54:14;;;;;;;4.85;1.77;;;;;;;1.69;64.59;100696.69;5003899;28;20108;-73
2022/02/01 09:56:39;;;;;;;5.28;1.27;;;;;;;2.05;63.95;100693.88;5015316;28;20136;-73
2022/02/01 09:59:19;;;;;;;2.95;1.42;;;;;;;1.79;65.28;100700.06;5009662;28;20038;-74
2022/02/01 10:01:47;;;;;;;4.90;1.58;;;;;;;1.59;65.79;100683.88;5020945;28;20044;-74
2022/02/01 10:04:13;;;;;;;3.65;1.55;;;;;;;1.61;66.03;100677.84;5032124;28;20533;-73
2022/02/01 10:06:39;;;;;;;2.53;1.45;;;;;;;1.79;65.40;100670.88;5008311;28;20156;-73
2022/02/01 10:09:11;;;;;;;5.13;1.50;;;;;;;1.97;65.19;100680.19;5001692;28;20640;-71
2022/02/01 10:11:42;;;;;;;5.90;2.00;;;;;;;2.21;64.30;100668.81;4998826;28;20045;-74
2022/02/01 10:14:11;;;;;;;3.13;1.60;;;;;;;2.29;64.17;100660.16;5035362;28;20040;-74
2022/02/01 10:16:46;;;;;;;3.83;1.33;;;;;;;2.04;65.04;100669.84;5019710;28;20040;-73
2022/02/01 10:19:12;;;;;;;2.92;1.40;;;;;;;2.48;63.83;100658.25;5001468;28;20041;-74
2022/02/01 10:21:55;;;;;;;4.07;1.33;;;;;;;2.78;63.21;100648.50;5007481;28;20029;-74
2022/02/01 10:24:38;;;;;;;2.03;1.15;;;;;;;2.70;63.10;100652.88;5010820;28;20064;-73
2022/02/01 10:27:19;;;;;;;2.60;0.95;;;;;;;2.60;63.79;100649.56;5022010;28;20048;-72
2022/02/01 10:30:06;;;;;;;1.98;0.90;;;;;;;2.09;65.61;100629.38;4995484;28;20458;-72
2022/02/01 10:32:53;;;;;;;3.15;1.67;;;;;;;2.33;65.35;100628.31;5010978;28;20033;-71
2022/02/01 10:35:26;;;;;;;2.60;0.70;;;;;;;2.32;65.46;100611.13;5005761;28;20046;-72
2022/02/01 10:38:01;;;;;;;2.55;1.35;;;;;;;2.07;66.76;100597.59;5013552;28;20072;-72
2022/02/01 10:40:46;;;;;;;1.23;0.50;;;;;;;2.50;65.45;100596.31;5023979;28;20057;-73
2022/02/01 10:43:21;;;;;;;1.77;0.63;;;;;;;2.73;64.62;100599.50;5022857;28;20041;-73
2022/02/01 10:45:48;;;;;;;1.30;0.40;;;;;;;3.02;63.92;100608.59;5022169;28;21062;-73
2022/02/01 10:48:16;;;;;;;1.05;0.38;;;;;;;3.02;64.13;100613.75;5012531;28;20171;-73
2022/02/01 10:50:42;;;;;;;1.40;0.20;;;;;;;2.76;65.57;100596.03;5020745;28;20040;-73
2022/02/01 10:53:21;;;;;;;0.88;0.40;;;;;;;2.97;64.96;100587.16;5031791;28;20048;-72
2022/02/01 10:55:48;;;;;;;1.00;0.40;;;;;;;3.14;64.62;100576.63;5022816;28;20858;-72
2022/02/01 10:58:15;;;;;;;0.90;0.32;;;;;;;3.33;64.17;100572.91;5040785;28;20029;-71
2022/02/01 11:00:47;;;;;;;1.30;0.25;;;;;;;3.25;64.84;100558.34;5018864;28;20044;-72
2022/02/01 11:03:14;;;;;;;1.35;0.13;;;;;;;3.32;64.52;100562.63;5016322;28;20038;-73
2022/02/01 11:05:47;;;;;;;0.60;0.30;;;;;;;3.06;65.86;100542.28;4988026;28;20129;-74
2022/02/01 11:08:15;;;;;;;1.92;0.60;;;;;;;3.44;65.04;100552.09;5011854;28;20082;-74
2022/02/01 11:10:50;;;;;;;3.83;1.48;;;;;;;3.33;65.45;100525.56;5003022;28;20095;-74
2022/02/01 11:13:16;;;;;;;1.30;0.25;;;;;;;3.79;64.06;100545.50;5030881;28;20621;-74
2022/02/01 11:16:03;;;;;;;1.60;0.20;;;;;;;3.55;65.23;100537.25;5026475;28;20123;-74
2022/02/01 11:18:30;;;;;;;1.05;0.20;;;;;;;4.37;63.06;100528.91;5026334;28;20068;-73
2022/02/01 11:21:01;;;;;;;1.17;0.47;;;;;;;4.46;62.63;100524.44;5031457;28;20121;-74
2022/02/01 11:23:35;;;;;;;4.10;0.20;;;;;;;4.57;62.37;100525.91;5022799;28;20189;-73
2022/02/01 11:26:08;;;;;;;3.00;0.40;;;;;;;4.38;62.81;100519.41;5007060;28;20578;-74
2022/02/01 11:28:48;;;;;;;4.50;0.50;;;;;;;4.06;63.83;100522.63;5010946;28;20066;-74
2022/02/01 11:31:14;;;;;;;3.20;0.40;;;;;;;4.41;63.50;100496.91;5005761;28;20042;-73
2022/02/01 11:33:48;;;;;;;8.02;0.95;;;;;;;4.59;63.11;100495.69;5003180;28;20053;-73
2022/02/01 11:36:14;;;;;;;6.10;1.05;;;;;;;4.69;62.90;100498.91;5004018;28;20049;-74
2022/02/01 11:38:55;;;;;;;2.92;0.30;;;;;;;4.84;62.35;100493.41;5017602;28;20143;-73
2022/02/01 11:41:36;;;;;;;5.70;1.00;;;;;;;4.36;63.26;100492.69;5004762;28;20516;-72
2022/02/01 11:44:29;;;;;;;5.43;0.40;;;;;;;5.11;61.62;100501.47;5017396;28;20487;-73
2022/02/01 11:47:03;;;;;;;5.95;1.20;;;;;;;4.65;63.05;100497.28;5023083;28;20040;-74
2022/02/01 11:49:29;;;;;;;9.05;1.45;;;;;;;4.82;62.86;100495.19;5005743;28;22413;-73
2022/02/01 11:52:14;;;;;;;10.43;1.70;;;;;;;4.78;62.81;100484.91;5004677;28;20033;-73
2022/02/01 11:54:43;;;;;;;13.32;1.33;;;;;;;5.16;61.73;100465.94;5016646;28;20487;-73
2022/02/01 11:57:17;;;;;;;14.63;1.70;;;;;;;5.30;61.27;100456.97;5003943;28;20041;-72
2022/02/01 12:00:07;;;;;;;17.95;1.70;;;;;;;5.54;60.22;100451.19;5005304;28;20124;-73
2022/02/01 12:02:48;;;;;;;15.57;2.05;;;;;;;5.23;61.59;100449.38;5000596;28;20120;-74
2022/02/01 12:05:18;;;;;;;12.82;1.92;;;;;;;5.33;61.18;100434.44;5002699;28;20338;-74
2022/02/01 12:08:04;;;;;;;15.82;2.30;;;;;;;5.29;61.23;100442.34;5003135;28;20129;-74
2022/02/01 12:10:32;;;;;;;14.40;2.53;;;;;;;5.40;60.65;100430.78;5020464;28;20045;-73
2022/02/01 12:13:01;;;;;;;13.45;1.77;;;;;;;5.75;59.57;100433.34;5000740;28;20701;-74
2022/02/01 12:15:28;;;;;;;16.05;2.58;;;;;;;5.62;59.60;100446.66;5017431;28;20928;-75
2022/02/01 12:18:05;;;;;;;17.90;2.42;;;;;;;5.52;60.21;100444.34;5009530;28;20764;-74
2022/02/01 12:20:33;;;;;;;12.32;1.67;;;;;;;5.18;61.46;100433.06;5037423;28;20056;-73
2022/02/01 12:23:08;;;;;;;18.13;3.13;;;;;;;5.45;60.86;100430.69;5010539;28;20068;-73
2022/02/01 12:25:34;;;;;;;17.50;1.95;;;;;;;5.63;59.95;100422.41;5001055;28;20037;-74
2022/02/01 12:27:59;;;;;;;19.40;2.05;;;;;;;5.74;59.90;100423.88;5008973;28;20045;-74
2022/02/01 12:30:25;;;;;;;18.15;1.85;;;;;;;5.82;59.77;100408.97;5000866;28;20807;-73
2022/02/01 12:32:55;;;;;;;22.40;3.08;;;;;;;5.56;60.34;100407.91;4999343;28;20214;-74
2022/02/01 12:35:36;;;;;;;11.63;1.48;;;;;;;5.43;60.64;100416.91;5006676;28;20044;-73
2022/02/01 12:38:09;;;;;;;9.48;1.20;;;;;;;5.41;60.49;100416.09;5001117;28;20338;-72
2022/02/01 12:40:38;;;;;;;19.55;2.45;;;;;;;5.82;59.48;100416.75;5014330;28;21312;-74
2022/02/01 12:43:12;;;;;;;13.55;1.15;;;;;;;5.32;61.22;100411.16;5001188;28;20069;-72
2022/02/01 12:45:57;;;;;;;16.45;2.45;;;;;;;5.27;61.03;100413.00;4999509;28;20040;-73
2022/02/01 12:48:22;;;;;;;14.35;2.10;;;;;;;5.84;59.52;100405.44;5011975;28;20522;-73
2022/02/01 12:50:54;;;;;;;15.32;2.25;;;;;;;5.59;60.59;100418.22;5021070;28;20120;-73
2022/02/01 12:53:20;;;;;;;18.15;1.45;;;;;;;6.17;58.46;100400.19;5019919;28;20045;-72
2022/02/01 12:55:46;;;;;;;14.68;1.13;;;;;;;5.84;59.41;100399.41;5021310;28;20040;-72
2022/02/01 12:58:17;;;;;;;14.88;1.90;;;;;;;5.23;60.77;100392.38;5010426;28;20324;-73
2022/02/01 13:00:50;;;;;;;11.93;1.83;;;;;;;5.66;60.00;100385.22;5001863;28;20525;-73